Terminal Aerodrome Forecast
Issued by NWS

Home | Current Version | Previous Version | Text Only | Print | Product List | Glossary On
Versions: 1 2 3 4 5 6 7 8 9 10 11 12 13 14 15 16 17 18
000
FTUS45 KGJT 221725
TAFCNY
TAF
KCNY 221725Z 2218/2318 VRB03KT P6SM FEW120
     FM221900 14008KT P6SM SCT120
     FM230200 VRB04KT P6SM SCT250
     FM230700 VRB03KT P6SM FEW250
     FM231600 14007KT P6SM SCT120=

USA.gov is the U.S. government's official web portal to all federal, state and local government web resources and services.